createdAt,value
2022-08-12T00:02:02.809Z,57.70
2022-08-12T00:05:27.926Z,57.80
2022-08-12T00:08:50.261Z,58.00
2022-08-12T00:12:11.019Z,58.10
2022-08-12T00:15:34.339Z,58.30
2022-08-12T00:18:54.987Z,58.50
2022-08-12T00:22:17.658Z,58.90
2022-08-12T00:26:05.565Z,58.80
2022-08-12T00:29:18.942Z,59.00
2022-08-12T00:32:40.147Z,59.40
2022-08-12T00:36:09.761Z,59.60
2022-08-12T00:39:40.430Z,59.80
2022-08-12T00:42:42.927Z,59.70
2022-08-12T00:46:03.309Z,59.70
2022-08-12T00:49:07.810Z,59.80
2022-08-12T00:52:11.187Z,60.10
2022-08-12T00:55:16.556Z,60.20
2022-08-12T00:58:25.846Z,60.40
2022-08-12T01:01:30.459Z,60.90
2022-08-12T01:05:12.564Z,61.20
2022-08-12T01:08:44.641Z,60.70
2022-08-12T01:11:51.010Z,60.90
2022-08-12T01:14:57.496Z,61.20
2022-08-12T01:18:00.466Z,61.20
2022-08-12T01:21:20.384Z,62.10
2022-08-12T01:24:50.357Z,61.90
2022-08-12T01:27:55.775Z,61.90
2022-08-12T01:31:02.277Z,61.70
2022-08-12T01:34:35.827Z,62.20
2022-08-12T01:37:31.600Z,62.20
2022-08-12T01:40:40.477Z,62.10
2022-08-12T01:43:46.942Z,62.40
2022-08-12T01:47:05.727Z,62.30
2022-08-12T01:50:20.914Z,62.90
2022-08-12T01:53:27.001Z,62.90
2022-08-12T01:56:43.554Z,63.10
2022-08-12T01:59:53.416Z,62.80
2022-08-12T02:03:17.867Z,62.90
2022-08-12T02:06:45.107Z,62.90
2022-08-12T02:10:49.563Z,63.20
2022-08-12T02:14:24.430Z,63.30
2022-08-12T02:17:55.584Z,63.30
2022-08-12T02:21:05.150Z,63.70
2022-08-12T02:24:10.931Z,63.20
2022-08-12T02:27:16.112Z,63.40
2022-08-12T02:30:23.806Z,63.60
2022-08-12T02:33:26.834Z,63.40
2022-08-12T02:36:32.790Z,63.60
2022-08-12T02:39:41.780Z,64.40
2022-08-12T02:42:52.145Z,64.40
2022-08-12T02:46:01.378Z,64.70
2022-08-12T02:49:06.275Z,64.70
2022-08-12T02:52:10.275Z,64.90
2022-08-12T02:55:34.186Z,64.60
2022-08-12T02:58:41.360Z,64.70
2022-08-12T03:01:51.631Z,64.60
2022-08-12T03:04:57.513Z,64.80
2022-08-12T03:08:04.365Z,65.00
2022-08-12T03:11:17.203Z,64.60
2022-08-12T03:14:22.854Z,65.30
2022-08-12T03:17:33.640Z,64.50
2022-08-12T03:20:40.287Z,65.20
2022-08-12T03:23:45.606Z,65.60
2022-08-12T03:26:49.513Z,65.80
2022-08-12T03:29:55.385Z,65.90
2022-08-12T03:33:01.746Z,66.00
2022-08-12T03:36:07.022Z,66.20
2022-08-12T03:39:40.750Z,66.60
2022-08-12T03:43:06.558Z,66.10
2022-08-12T03:46:41.340Z,66.30
2022-08-12T03:50:03.805Z,66.20
2022-08-12T03:53:25.901Z,66.60
2022-08-12T03:56:46.726Z,66.80
2022-08-12T04:00:06.923Z,67.00
2022-08-12T04:03:36.778Z,66.90
2022-08-12T04:06:45.897Z,66.90
2022-08-12T04:09:48.847Z,66.70
2022-08-12T04:13:26.547Z,66.90
2022-08-12T04:16:29.529Z,67.20
2022-08-12T04:19:32.624Z,67.40
2022-08-12T04:22:37.460Z,67.90
2022-08-12T04:25:41.533Z,68.00
2022-08-12T04:28:44.518Z,68.30
2022-08-12T04:31:47.792Z,68.50
2022-08-12T04:34:51.127Z,68.40
2022-08-12T04:37:59.364Z,68.30
2022-08-12T04:41:04.273Z,68.80
2022-08-12T04:44:08.211Z,68.90
2022-08-12T04:47:14.162Z,68.70
2022-08-12T04:50:34.831Z,68.50
2022-08-12T04:53:41.810Z,68.30
2022-08-12T04:56:45.766Z,68.90
2022-08-12T05:00:10.797Z,69.80
2022-08-12T05:03:14.032Z,69.10
2022-08-12T05:06:26.823Z,69.70
2022-08-12T05:09:58.689Z,68.80
2022-08-12T05:12:58.789Z,69.60
2022-08-12T05:16:05.070Z,68.90
2022-08-12T05:19:13.122Z,68.90
2022-08-12T05:22:21.690Z,68.60
2022-08-12T05:25:26.122Z,68.70
2022-08-12T05:28:30.406Z,69.20
2022-08-12T05:31:40.574Z,69.00
2022-08-12T05:34:51.475Z,68.40
2022-08-12T05:38:14.665Z,68.00
2022-08-12T05:41:22.499Z,67.20
2022-08-12T05:44:25.399Z,68.40
2022-08-12T05:47:36.649Z,67.20
2022-08-12T05:50:52.946Z,67.90
2022-08-12T05:53:57.194Z,68.40
2022-08-12T05:57:02.209Z,67.80
2022-08-12T06:00:07.234Z,68.10
2022-08-12T06:03:11.052Z,67.80
2022-08-12T06:06:17.036Z,67.80
2022-08-12T06:09:22.369Z,68.60
2022-08-12T06:12:26.819Z,67.60
2022-08-12T06:15:30.571Z,66.70
2022-08-12T06:18:33.519Z,67.40
2022-08-12T06:21:37.699Z,67.90
2022-08-12T06:24:42.092Z,67.20
2022-08-12T06:28:08.042Z,66.70
2022-08-12T06:31:26.819Z,67.40
2022-08-12T06:35:26.610Z,66.50
2022-08-12T06:37:56.615Z,66.80
2022-08-12T06:41:19.506Z,65.60
2022-08-12T06:44:23.790Z,66.10
2022-08-12T06:47:26.802Z,66.00
2022-08-12T06:50:31.029Z,66.80
2022-08-12T06:53:37.195Z,66.00
2022-08-12T06:57:02.880Z,65.00
2022-08-12T07:00:05.357Z,64.00
2022-08-12T07:03:22.937Z,64.30
2022-08-12T07:06:26.825Z,64.70
2022-08-12T07:10:04.131Z,64.50
2022-08-12T07:12:54.975Z,63.90
2022-08-12T07:15:59.725Z,62.20
2022-08-12T07:19:04.225Z,63.50
2022-08-12T07:22:07.725Z,62.90
2022-08-12T07:25:28.725Z,63.70
2022-08-12T07:28:34.881Z,64.00
2022-08-12T07:31:40.114Z,62.60
2022-08-12T07:34:43.348Z,63.10
2022-08-12T07:37:47.264Z,63.00
2022-08-12T07:40:50.217Z,62.00
2022-08-12T07:43:59.056Z,61.00
2022-08-12T07:47:07.585Z,61.00
2022-08-12T07:50:11.691Z,61.00
2022-08-12T07:53:14.607Z,60.50
2022-08-12T07:56:18.362Z,61.40
2022-08-12T07:59:21.347Z,60.10
2022-08-12T08:02:26.890Z,59.80
2022-08-12T08:05:34.178Z,59.40
2022-08-12T08:08:37.106Z,59.80
2022-08-12T08:11:57.806Z,59.80
2022-08-12T08:15:02.863Z,59.50
2022-08-12T08:18:09.637Z,60.20
2022-08-12T08:21:12.545Z,58.70
2022-08-12T08:24:15.511Z,58.20
2022-08-12T08:27:18.476Z,57.80
2022-08-12T08:30:21.419Z,57.10
2022-08-12T08:34:09.422Z,56.80
2022-08-12T08:36:49.117Z,56.80
2022-08-12T08:39:52.038Z,55.70
2022-08-12T08:42:54.168Z,56.10
2022-08-12T08:45:57.676Z,57.10
2022-08-12T08:49:02.206Z,55.50
2022-08-12T08:52:06.432Z,56.00
2022-08-12T08:55:10.703Z,56.00
2022-08-12T08:58:13.768Z,55.40
2022-08-12T09:01:22.435Z,55.50
2022-08-12T09:05:12.089Z,54.50
2022-08-12T09:08:08.951Z,54.90
2022-08-12T09:12:07.572Z,54.30
2022-08-12T09:14:51.484Z,54.60
2022-08-12T09:17:55.962Z,54.90
2022-08-12T09:21:03.778Z,53.90
2022-08-12T09:24:10.401Z,54.70
2022-08-12T09:27:16.739Z,53.90
2022-08-12T09:30:42.325Z,53.20
2022-08-12T09:34:29.362Z,52.90
2022-08-12T09:37:20.160Z,53.40
2022-08-12T09:40:55.670Z,53.20
2022-08-12T09:44:06.824Z,54.00
2022-08-12T09:47:29.806Z,52.80
2022-08-12T09:50:37.147Z,52.20
2022-08-12T09:53:42.077Z,52.70
2022-08-12T09:57:01.778Z,53.00
2022-08-12T10:00:16.687Z,52.50
2022-08-12T10:03:31.867Z,52.30
2022-08-12T10:06:36.833Z,53.10
2022-08-12T10:09:59.270Z,53.20
2022-08-12T10:13:34.589Z,53.50
2022-08-12T10:16:43.855Z,53.10
2022-08-12T10:19:51.930Z,52.40
2022-08-12T10:23:00.172Z,51.90
2022-08-12T10:26:38.725Z,52.10
2022-08-12T10:30:37.510Z,52.30
2022-08-12T10:33:18.497Z,52.00
2022-08-12T10:36:40.087Z,53.60
2022-08-12T10:40:00.897Z,52.60
2022-08-12T10:43:28.388Z,52.20
2022-08-12T10:46:52.818Z,52.60
2022-08-12T10:50:07.063Z,52.20
2022-08-12T10:53:20.303Z,51.80
2022-08-12T10:56:48.829Z,53.10
2022-08-12T11:00:31.315Z,51.80
2022-08-12T11:04:24.693Z,51.00
2022-08-12T11:07:06.489Z,48.40
2022-08-12T11:10:10.987Z,49.10
2022-08-12T11:13:13.916Z,49.40
2022-08-12T11:16:22.149Z,48.80
2022-08-12T11:19:26.390Z,47.80
2022-08-12T11:22:33.311Z,48.80
2022-08-12T11:25:55.928Z,47.10
2022-08-12T11:29:05.863Z,47.20
2022-08-12T11:32:24.106Z,45.80
2022-08-12T11:35:29.578Z,46.90
2022-08-12T11:38:32.559Z,46.20
2022-08-12T11:41:39.196Z,46.10
2022-08-12T11:44:43.236Z,43.90
2022-08-12T11:47:49.290Z,44.20
2022-08-12T11:50:57.754Z,44.40
2022-08-12T11:54:01.527Z,44.00
2022-08-12T11:57:52.441Z,44.80
2022-08-12T12:03:54.755Z,43.80
2022-08-12T12:07:06.623Z,42.70
2022-08-12T12:10:12.202Z,43.60
2022-08-12T12:14:05.353Z,43.50
2022-08-12T12:16:39.938Z,43.70
2022-08-12T12:19:46.618Z,43.10
2022-08-12T12:22:49.535Z,42.60
2022-08-12T12:26:07.040Z,43.70
2022-08-12T12:30:18.783Z,42.50
2022-08-12T12:32:34.236Z,42.40
2022-08-12T12:36:06.473Z,41.70
2022-08-12T12:39:02.665Z,42.30
2022-08-12T12:42:52.197Z,43.20
2022-08-12T12:45:35.605Z,42.80
2022-08-12T12:48:44.027Z,43.40
2022-08-12T12:52:18.571Z,42.40
2022-08-12T12:55:13.306Z,41.20
2022-08-12T12:58:17.481Z,41.70
2022-08-12T13:01:27.985Z,41.50
2022-08-12T13:04:34.919Z,40.70
2022-08-12T13:07:49.455Z,41.50
2022-08-12T13:11:00.492Z,41.30
2022-08-12T13:14:08.731Z,41.80
2022-08-12T13:17:16.637Z,41.20
2022-08-12T13:20:33.633Z,40.70
2022-08-12T13:23:46.422Z,39.20
2022-08-12T13:26:50.939Z,40.30
2022-08-12T13:29:56.223Z,40.70
2022-08-12T13:33:01.044Z,41.00
2022-08-12T13:36:10.207Z,39.50
2022-08-12T13:39:16.608Z,39.20
2022-08-12T13:42:19.744Z,39.40
2022-08-12T13:45:22.854Z,40.20
2022-08-12T13:48:28.912Z,39.40
2022-08-12T13:51:41.145Z,39.80
2022-08-12T13:54:47.440Z,39.10
2022-08-12T13:58:01.683Z,40.50
2022-08-12T14:01:06.458Z,40.10
2022-08-12T14:04:12.281Z,38.70
2022-08-12T14:07:15.618Z,38.60
2022-08-12T14:10:46.368Z,39.40
2022-08-12T14:14:04.123Z,37.60
2022-08-12T14:17:19.877Z,39.50
2022-08-12T14:20:23.313Z,39.20
2022-08-12T14:24:04.186Z,37.40
2022-08-12T14:26:56.763Z,37.40
2022-08-12T14:30:15.461Z,38.30
2022-08-12T14:33:21.790Z,36.10
2022-08-12T14:36:26.342Z,36.80
2022-08-12T14:39:29.554Z,38.60
2022-08-12T14:42:35.476Z,36.80
2022-08-12T14:45:47.047Z,36.80
2022-08-12T14:48:54.488Z,38.40
2022-08-12T14:52:57.720Z,37.30
2022-08-12T14:58:59.281Z,36.00
2022-08-12T15:02:04.105Z,35.70
2022-08-12T15:06:05.327Z,36.80
2022-08-12T15:08:39.934Z,37.40
2022-08-12T15:11:55.192Z,37.60
2022-08-12T15:15:00.323Z,38.20
2022-08-12T15:18:05.598Z,37.30
2022-08-12T15:21:11.754Z,36.80
2022-08-12T15:24:14.820Z,36.50
2022-08-12T15:27:22.581Z,37.60
2022-08-12T15:30:44.624Z,36.70
2022-08-12T15:33:50.058Z,37.50
2022-08-12T15:36:55.648Z,37.30
2022-08-12T15:40:01.316Z,37.60
2022-08-12T15:43:08.156Z,38.10
2022-08-12T15:46:15.138Z,37.90
2022-08-12T15:49:19.216Z,37.30
2022-08-12T15:52:27.506Z,38.30
2022-08-12T15:55:33.776Z,38.10
2022-08-12T15:58:38.247Z,38.10
2022-08-12T16:01:43.414Z,37.40
2022-08-12T16:04:50.287Z,38.20
2022-08-12T16:07:53.862Z,38.20
2022-08-12T16:10:57.569Z,38.90
2022-08-12T16:14:00.561Z,39.20
2022-08-12T16:17:05.430Z,38.90
2022-08-12T16:20:21.071Z,39.60
2022-08-12T16:23:36.404Z,39.80
2022-08-12T16:26:51.415Z,40.00
2022-08-12T16:29:59.145Z,41.10
2022-08-12T16:33:10.234Z,40.80
2022-08-12T16:36:18.876Z,41.50
2022-08-12T16:39:22.212Z,42.70
2022-08-12T16:42:28.399Z,44.10
2022-08-12T16:46:24.041Z,43.80
2022-08-12T16:48:59.600Z,43.60
2022-08-12T16:52:09.238Z,44.10
2022-08-12T16:55:15.733Z,44.60
2022-08-12T16:58:30.441Z,45.50
2022-08-12T17:01:35.958Z,45.70
2022-08-12T17:04:42.891Z,46.00
2022-08-12T17:07:56.256Z,46.00
2022-08-12T17:10:59.796Z,45.40
2022-08-12T17:14:02.702Z,45.90
2022-08-12T17:17:09.784Z,46.00
2022-08-12T17:20:37.515Z,45.70
2022-08-12T17:23:48.701Z,46.30
2022-08-12T17:26:57.508Z,46.80
2022-08-12T17:30:04.411Z,46.50
2022-08-12T17:33:08.811Z,46.50
2022-08-12T17:36:13.088Z,46.90
2022-08-12T17:39:19.916Z,47.10
2022-08-12T17:42:32.638Z,46.90
2022-08-12T17:45:40.663Z,46.40
2022-08-12T17:48:54.539Z,46.40
2022-08-12T17:52:02.528Z,46.10
2022-08-12T17:55:40.793Z,46.20
2022-08-12T17:58:36.896Z,46.60
2022-08-12T18:01:43.055Z,46.70
2022-08-12T18:05:05.251Z,46.60
2022-08-12T18:08:13.223Z,46.90
2022-08-12T18:12:06.050Z,47.20
2022-08-12T18:14:58.350Z,47.20
2022-08-12T18:18:03.110Z,47.30
2022-08-12T18:21:07.530Z,47.90
2022-08-12T18:24:22.245Z,47.70
2022-08-12T18:27:44.729Z,48.00
2022-08-12T18:30:52.310Z,47.80
2022-08-12T18:34:00.918Z,48.00
2022-08-12T18:37:26.663Z,48.40
2022-08-12T18:40:48.181Z,49.00
2022-08-12T18:44:00.047Z,48.50
2022-08-12T18:47:09.581Z,49.30
2022-08-12T18:50:16.442Z,49.70
2022-08-12T18:54:06.412Z,49.40
2022-08-12T18:56:46.328Z,49.70
2022-08-12T19:00:00.839Z,50.00
2022-08-12T19:03:09.148Z,50.50
2022-08-12T19:06:27.346Z,50.60
2022-08-12T19:09:38.968Z,50.70
2022-08-12T19:13:01.642Z,51.20
2022-08-12T19:16:10.710Z,51.40
2022-08-12T19:19:17.419Z,51.70
2022-08-12T19:22:28.724Z,51.70
2022-08-12T19:26:01.061Z,52.00
2022-08-12T19:29:03.357Z,52.70
2022-08-12T19:32:09.597Z,52.30
2022-08-12T19:38:36.022Z,53.20
2022-08-12T19:41:42.698Z,53.40
2022-08-12T19:45:04.829Z,53.40
2022-08-12T19:48:16.622Z,53.70
2022-08-12T19:51:33.215Z,53.90
2022-08-12T19:54:36.632Z,54.30
2022-08-12T19:57:42.545Z,54.50
2022-08-12T20:01:11.084Z,54.70
2022-08-12T20:04:15.014Z,54.80
2022-08-12T20:07:24.284Z,55.10
2022-08-12T20:10:35.356Z,55.00
2022-08-12T20:13:42.154Z,55.40
2022-08-12T20:16:53.227Z,55.50
2022-08-12T20:20:19.409Z,55.60
2022-08-12T20:23:50.726Z,55.30
2022-08-12T20:26:48.350Z,55.60
2022-08-12T20:29:54.389Z,55.60
2022-08-12T20:33:00.869Z,56.00
2022-08-12T20:36:14.197Z,56.90
2022-08-12T20:39:52.126Z,56.10
2022-08-12T20:42:53.498Z,56.20
2022-08-12T20:45:58.045Z,56.40
2022-08-12T20:49:14.411Z,56.40
2022-08-12T20:52:22.484Z,56.40
2022-08-12T20:55:42.347Z,56.60
2022-08-12T20:58:46.641Z,56.60
2022-08-12T21:01:53.909Z,56.80
2022-08-12T21:05:19.513Z,57.40
2022-08-12T21:08:26.599Z,57.00
2022-08-12T21:11:30.300Z,57.10
2022-08-12T21:14:39.776Z,57.00
2022-08-12T21:18:10.747Z,57.10
2022-08-12T21:21:49.765Z,57.40
2022-08-12T21:24:50.916Z,57.40
2022-08-12T21:27:58.852Z,57.50
2022-08-12T21:32:34.977Z,57.60
2022-08-12T21:34:29.238Z,57.90
2022-08-12T21:37:37.418Z,57.70
2022-08-12T21:40:52.172Z,58.00
2022-08-12T21:44:00.835Z,58.10
2022-08-12T21:47:20.379Z,58.50
2022-08-12T21:50:29.191Z,58.80
2022-08-12T21:54:07.257Z,58.90
2022-08-12T21:56:56.638Z,59.20
2022-08-12T21:59:59.586Z,59.40
2022-08-12T22:04:01.779Z,59.40
2022-08-12T22:06:53.409Z,59.40
2022-08-12T22:09:58.739Z,59.60
2022-08-12T22:13:01.689Z,59.70
2022-08-12T22:16:05.146Z,59.70
2022-08-12T22:19:08.082Z,59.80
2022-08-12T22:22:12.288Z,60.10
2022-08-12T22:25:16.767Z,60.70
2022-08-12T22:28:40.480Z,61.10
2022-08-12T22:31:43.462Z,61.00
2022-08-12T22:34:46.669Z,60.90
2022-08-12T22:37:49.600Z,61.10
2022-08-12T22:41:00.829Z,61.20
2022-08-12T22:44:23.120Z,61.30
2022-08-12T22:47:53.503Z,61.50
2022-08-12T22:50:59.572Z,61.70
2022-08-12T22:54:02.666Z,62.30
2022-08-12T22:57:12.064Z,62.10
2022-08-12T23:00:24.447Z,62.60
2022-08-12T23:03:48.787Z,62.60
2022-08-12T23:06:55.964Z,62.70
2022-08-12T23:09:58.852Z,63.60
2022-08-12T23:13:23.138Z,63.20
2022-08-12T23:16:31.736Z,63.80
2022-08-12T23:19:38.421Z,63.90
2022-08-12T23:22:56.206Z,64.10
2022-08-12T23:26:06.313Z,63.80
2022-08-12T23:29:30.125Z,64.30
2022-08-12T23:32:38.521Z,64.30
2022-08-12T23:35:53.842Z,64.70
2022-08-12T23:39:06.669Z,64.30
2022-08-12T23:42:31.277Z,64.30
2022-08-12T23:45:35.792Z,64.50
2022-08-12T23:48:40.076Z,64.80
2022-08-12T23:51:43.840Z,65.00
2022-08-12T23:54:58.077Z,65.10
2022-08-12T23:58:21.854Z,65.00
